createdAt,value
2023-04-06T00:01:03.226Z,99034.53
2023-04-06T00:03:30.246Z,99038.66
2023-04-06T00:05:57.329Z,99027.25
2023-04-06T00:08:24.716Z,99012.34
2023-04-06T00:10:51.905Z,99033.19
2023-04-06T00:13:19.184Z,99029.72
2023-04-06T00:15:46.152Z,99013.94
2023-04-06T00:18:13.393Z,99027.81
2023-04-06T00:20:41.319Z,99025.09
2023-04-06T00:23:08.198Z,99000.69
2023-04-06T00:25:35.475Z,99014.88
2023-04-06T00:28:02.457Z,99013.81
2023-04-06T00:30:29.265Z,99014.59
2023-04-06T00:32:56.692Z,99000.16
2023-04-06T00:35:24.311Z,99003.44
2023-04-06T00:37:51.302Z,99005.59
2023-04-06T00:40:18.567Z,98999.63
2023-04-06T00:42:46.260Z,98989.88
2023-04-06T00:45:13.328Z,99000.75
2023-04-06T00:47:40.545Z,99001.31
2023-04-06T00:50:08.109Z,98995.81
2023-04-06T00:52:36.730Z,98999.06
2023-04-06T00:55:05.360Z,98987.16
2023-04-06T00:57:32.983Z,98990.69
2023-04-06T01:00:00.165Z,98978.19
2023-04-06T01:02:27.526Z,98985.22
2023-04-06T01:04:56.041Z,98984.41
2023-04-06T01:07:36.525Z,98988.22
2023-04-06T01:10:11.600Z,98984.16
2023-04-06T01:12:39.949Z,98976.75
2023-04-06T01:15:14.863Z,98969.66
2023-04-06T01:17:44.374Z,98965.34
2023-04-06T01:20:15.628Z,98971.28
2023-04-06T01:22:43.118Z,98958.84
2023-04-06T01:25:11.975Z,98955.00
2023-04-06T01:27:57.274Z,98947.66
2023-04-06T01:30:33.446Z,98959.38
2023-04-06T01:33:06.633Z,98947.16
2023-04-06T01:35:52.527Z,98947.13
2023-04-06T01:38:20.800Z,98944.94
2023-04-06T01:40:49.284Z,98939.19
2023-04-06T01:43:18.485Z,98943.03
2023-04-06T01:46:14.748Z,98942.97
2023-04-06T01:48:43.653Z,98950.06
2023-04-06T01:51:19.917Z,98929.41
2023-04-06T01:53:56.822Z,98949.50
2023-04-06T01:56:31.377Z,98938.09
2023-04-06T01:59:05.361Z,98938.63
2023-04-06T02:01:38.231Z,98936.56
2023-04-06T02:04:05.372Z,98947.91
2023-04-06T02:06:32.567Z,98942.81
2023-04-06T02:09:01.425Z,98941.38
2023-04-06T02:11:28.708Z,98941.66
2023-04-06T02:13:56.848Z,98938.66
2023-04-06T02:16:27.973Z,98928.88
2023-04-06T02:18:55.101Z,98925.31
2023-04-06T02:21:22.061Z,98932.41
2023-04-06T02:23:50.464Z,98912.50
2023-04-06T02:26:18.380Z,98912.78
2023-04-06T02:28:45.788Z,98915.72
2023-04-06T02:31:12.782Z,98910.03
2023-04-06T02:33:40.536Z,98913.03
2023-04-06T02:36:07.896Z,98912.50
2023-04-06T02:38:35.277Z,98909.78
2023-04-06T02:41:03.269Z,98907.63
2023-04-06T02:43:30.678Z,98902.78
2023-04-06T02:46:06.539Z,98900.34
2023-04-06T02:48:38.261Z,98896.47
2023-04-06T02:51:05.604Z,98922.00
2023-04-06T02:53:32.856Z,98922.28
2023-04-06T02:55:59.939Z,98912.75
2023-04-06T02:58:35.658Z,98914.38
2023-04-06T03:01:02.601Z,98907.00
2023-04-06T03:03:30.216Z,98906.47
2023-04-06T03:05:59.760Z,98914.84
2023-04-06T03:08:30.415Z,98922.75
2023-04-06T03:10:57.374Z,98900.72
2023-04-06T03:13:32.749Z,98915.44
2023-04-06T03:15:59.852Z,98905.56
2023-04-06T03:18:27.593Z,98905.03
2023-04-06T03:20:56.642Z,98907.75
2023-04-06T03:23:30.025Z,98903.09
2023-04-06T03:26:00.148Z,98904.22
2023-04-06T03:28:27.521Z,98896.59
2023-04-06T03:30:58.252Z,98905.78
2023-04-06T03:33:43.559Z,98894.97
2023-04-06T03:36:16.727Z,98908.78
2023-04-06T03:38:44.720Z,98907.41
2023-04-06T03:41:13.858Z,98915.53
2023-04-06T03:43:44.710Z,98919.63
2023-04-06T03:46:12.136Z,98910.09
2023-04-06T03:48:39.193Z,98919.38
2023-04-06T03:51:08.061Z,98911.72
2023-04-06T03:53:35.086Z,98913.09
2023-04-06T03:56:04.614Z,98906.84
2023-04-06T03:58:32.120Z,98913.19
2023-04-06T04:00:59.228Z,98907.47
2023-04-06T04:03:28.679Z,98915.56
2023-04-06T04:05:59.022Z,98919.66
2023-04-06T04:08:26.655Z,98906.84
2023-04-06T04:10:53.737Z,98917.44
2023-04-06T04:13:20.818Z,98922.34
2023-04-06T04:15:50.504Z,98914.47
2023-04-06T04:18:17.568Z,98908.78
2023-04-06T04:20:44.691Z,98912.56
2023-04-06T04:23:12.878Z,98907.34
2023-04-06T04:25:40.008Z,98919.78
2023-04-06T04:28:07.189Z,98905.72
2023-04-06T04:30:35.087Z,98918.69
2023-04-06T04:33:07.192Z,98918.16
2023-04-06T04:35:34.309Z,98908.72
2023-04-06T04:38:01.416Z,98900.81
2023-04-06T04:40:28.502Z,98902.97
2023-04-06T04:43:04.008Z,98902.88
2023-04-06T04:45:34.392Z,98901.78
2023-04-06T04:48:12.121Z,98909.28
2023-04-06T04:50:51.166Z,98913.06
2023-04-06T04:53:23.152Z,98917.47
2023-04-06T04:55:53.664Z,98914.25
2023-04-06T04:58:21.363Z,98894.25
2023-04-06T05:00:53.369Z,98913.16
2023-04-06T05:03:25.997Z,98915.03
2023-04-06T05:06:00.147Z,98911.78
2023-04-06T05:08:31.208Z,98911.53
2023-04-06T05:10:58.929Z,98911.09
2023-04-06T05:13:27.144Z,98904.44
2023-04-06T05:16:02.151Z,98911.50
2023-04-06T05:18:32.893Z,98896.00
2023-04-06T05:21:01.111Z,98906.94
2023-04-06T05:23:37.382Z,98913.47
2023-04-06T05:26:04.518Z,98902.03
2023-04-06T05:28:32.510Z,98906.63
2023-04-06T05:31:01.072Z,98902.31
2023-04-06T05:33:33.783Z,98893.31
2023-04-06T05:36:08.182Z,98897.28
2023-04-06T05:38:39.337Z,98897.38
2023-04-06T05:41:17.123Z,98895.25
2023-04-06T05:43:44.251Z,98894.78
2023-04-06T05:46:11.694Z,98895.19
2023-04-06T05:48:38.796Z,98891.88
2023-04-06T05:51:07.378Z,98885.50
2023-04-06T05:53:43.505Z,98888.19
2023-04-06T05:56:10.497Z,98876.47
2023-04-06T05:58:37.752Z,98884.66
2023-04-06T06:01:06.483Z,98885.63
2023-04-06T06:03:40.821Z,98870.66
2023-04-06T06:06:07.937Z,98857.38
2023-04-06T06:08:45.643Z,98874.97
2023-04-06T06:11:16.204Z,98869.50
2023-04-06T06:13:43.156Z,98878.91
2023-04-06T06:16:10.845Z,98871.25
2023-04-06T06:18:43.953Z,98876.66
2023-04-06T06:21:13.346Z,98864.75
2023-04-06T06:23:43.405Z,98852.81
2023-04-06T06:26:14.659Z,98868.19
2023-04-06T06:28:41.635Z,98876.59
2023-04-06T06:31:10.551Z,98875.22
2023-04-06T06:33:37.449Z,98865.94
2023-04-06T06:36:04.820Z,98864.00
2023-04-06T06:38:31.847Z,98867.44
2023-04-06T06:40:59.215Z,98865.06
2023-04-06T06:43:29.647Z,98864.06
2023-04-06T06:46:00.533Z,98874.50
2023-04-06T06:48:27.831Z,98865.81
2023-04-06T06:50:54.902Z,98868.41
2023-04-06T06:53:22.065Z,98860.59
2023-04-06T06:55:51.825Z,98865.25
2023-04-06T06:58:20.935Z,98859.53
2023-04-06T07:00:48.562Z,98885.44
2023-04-06T07:03:16.017Z,98887.66
2023-04-06T07:05:54.180Z,98886.00
2023-04-06T07:08:24.168Z,98886.63
2023-04-06T07:10:53.859Z,98889.91
2023-04-06T07:13:24.408Z,98875.50
2023-04-06T07:15:54.243Z,98877.88
2023-04-06T07:18:22.018Z,98884.94
2023-04-06T07:20:49.881Z,98882.28
2023-04-06T07:23:17.732Z,98880.16
2023-04-06T07:25:45.779Z,98888.84
2023-04-06T07:28:12.876Z,98890.41
2023-04-06T07:30:40.381Z,98886.84
2023-04-06T07:33:09.611Z,98893.06
2023-04-06T07:35:37.811Z,98893.69
2023-04-06T07:38:06.401Z,98892.28
2023-04-06T07:40:34.616Z,98888.13
2023-04-06T07:43:03.204Z,98894.56
2023-04-06T07:45:31.018Z,98902.59
2023-04-06T07:47:59.523Z,98886.09
2023-04-06T07:50:28.143Z,98892.41
2023-04-06T07:52:56.433Z,98900.78
2023-04-06T07:55:23.477Z,98894.69
2023-04-06T07:57:50.621Z,98888.84
2023-04-06T08:00:18.043Z,98887.41
2023-04-06T08:02:45.085Z,98890.72
2023-04-06T08:05:12.231Z,98896.66
2023-04-06T08:07:39.336Z,98892.31
2023-04-06T08:10:06.557Z,98901.44
2023-04-06T08:12:36.146Z,98902.47
2023-04-06T08:15:04.727Z,98893.34
2023-04-06T08:17:33.013Z,98898.03
2023-04-06T08:20:00.450Z,98906.19
2023-04-06T08:22:27.515Z,98908.63
2023-04-06T08:24:54.490Z,98895.25
2023-04-06T08:27:21.771Z,98894.31
2023-04-06T08:29:50.524Z,98883.34
2023-04-06T08:32:17.613Z,98891.25
2023-04-06T08:34:44.533Z,98889.63
2023-04-06T08:37:11.677Z,98893.56
2023-04-06T08:39:38.892Z,98891.63
2023-04-06T08:42:06.657Z,98896.88
2023-04-06T08:44:34.144Z,98892.41
2023-04-06T08:47:01.554Z,98891.16
2023-04-06T08:49:29.161Z,98895.22
2023-04-06T08:51:58.325Z,98873.47
2023-04-06T08:54:25.917Z,98890.59
2023-04-06T08:56:54.722Z,98884.25
2023-04-06T08:59:22.102Z,98882.03
2023-04-06T09:01:49.314Z,98878.63
2023-04-06T09:04:27.595Z,98878.34
2023-04-06T09:06:54.781Z,98881.72
2023-04-06T09:09:24.695Z,98882.53
2023-04-06T09:11:53.207Z,98886.41
2023-04-06T09:14:46.557Z,98896.75
2023-04-06T09:17:22.501Z,98881.63
2023-04-06T09:19:50.236Z,98885.13
2023-04-06T09:22:17.501Z,98892.94
2023-04-06T09:24:55.805Z,98878.66
2023-04-06T09:27:36.987Z,98895.50
2023-04-06T09:30:32.150Z,98895.00
2023-04-06T09:33:00.855Z,98877.84
2023-04-06T09:35:29.973Z,98884.66
2023-04-06T09:37:57.679Z,98882.78
2023-04-06T09:40:25.348Z,98877.84
2023-04-06T09:42:58.621Z,98883.81
2023-04-06T09:45:28.264Z,98883.41
2023-04-06T09:47:57.680Z,98880.78
2023-04-06T09:50:27.139Z,98886.56
2023-04-06T09:52:57.849Z,98875.47
2023-04-06T09:55:48.949Z,98797.22
2023-04-06T09:58:27.052Z,98881.69
2023-04-06T10:01:04.390Z,98885.44
2023-04-06T10:04:16.112Z,98888.75
2023-04-06T10:06:43.206Z,98892.69
2023-04-06T10:09:10.634Z,98887.00
2023-04-06T10:11:38.204Z,98883.63
2023-04-06T10:14:05.447Z,98866.03
2023-04-06T10:16:33.213Z,98866.41
2023-04-06T10:19:11.203Z,98863.75
2023-04-06T10:21:40.922Z,98881.22
2023-04-06T10:24:14.481Z,98879.56
2023-04-06T10:26:41.604Z,98856.81
2023-04-06T10:29:08.625Z,98871.34
2023-04-06T10:31:44.173Z,98874.22
2023-04-06T10:34:11.348Z,98881.56
2023-04-06T10:36:39.115Z,98869.56
2023-04-06T10:39:07.678Z,98883.94
2023-04-06T10:41:35.695Z,98880.09
2023-04-06T10:44:03.170Z,98884.44
2023-04-06T10:46:32.040Z,98872.84
2023-04-06T10:49:01.276Z,98872.09
2023-04-06T10:51:29.942Z,98873.03
2023-04-06T10:53:59.333Z,98873.22
2023-04-06T10:56:29.024Z,98875.66
2023-04-06T10:58:59.161Z,98862.56
2023-04-06T11:01:28.550Z,98855.13
2023-04-06T11:04:00.390Z,98858.31
2023-04-06T11:06:30.756Z,98864.97
2023-04-06T11:08:58.859Z,98856.44
2023-04-06T11:11:27.872Z,98850.44
2023-04-06T11:14:00.660Z,98858.97
2023-04-06T11:16:32.866Z,98858.50
2023-04-06T11:19:02.563Z,98856.56
2023-04-06T11:21:44.626Z,98852.22
2023-04-06T11:24:12.751Z,98851.78
2023-04-06T11:26:52.423Z,98848.13
2023-04-06T11:29:24.263Z,98840.09
2023-04-06T11:32:01.500Z,98832.41
2023-04-06T11:34:31.350Z,98839.50
2023-04-06T11:37:00.309Z,98830.72
2023-04-06T11:39:28.969Z,98830.28
2023-04-06T11:41:59.640Z,98838.69
2023-04-06T11:44:36.755Z,98826.38
2023-04-06T11:47:05.042Z,98817.69
2023-04-06T11:49:33.167Z,98825.53
2023-04-06T11:52:01.675Z,98818.41
2023-04-06T11:54:36.904Z,98822.09
2023-04-06T11:57:04.851Z,98823.34
2023-04-06T11:59:33.249Z,98807.34
2023-04-06T12:02:00.434Z,98805.25
2023-04-06T12:04:27.574Z,98789.72
2023-04-06T12:06:54.496Z,98800.59
2023-04-06T12:09:22.015Z,98808.78
2023-04-06T12:11:49.156Z,98798.09
2023-04-06T12:14:16.219Z,98814.16
2023-04-06T12:16:43.490Z,98794.56
2023-04-06T12:19:10.943Z,98809.97
2023-04-06T12:21:41.561Z,98795.22
2023-04-06T12:24:09.474Z,98805.75
2023-04-06T12:26:38.184Z,98802.75
2023-04-06T12:29:08.453Z,98810.22
2023-04-06T12:31:40.131Z,98794.44
2023-04-06T12:34:08.556Z,98796.69
2023-04-06T12:36:35.720Z,98791.75
2023-04-06T12:39:03.776Z,98786.03
2023-04-06T12:41:30.894Z,98773.22
2023-04-06T12:43:58.199Z,98797.81
2023-04-06T12:46:25.181Z,98794.59
2023-04-06T12:48:54.818Z,98785.69
2023-04-06T12:51:22.913Z,98793.84
2023-04-06T12:53:50.147Z,98780.25
2023-04-06T12:56:18.639Z,98798.09
2023-04-06T12:58:46.546Z,98795.72
2023-04-06T13:01:14.382Z,98790.41
2023-04-06T13:03:42.396Z,98786.50
2023-04-06T13:06:09.955Z,98783.59
2023-04-06T13:08:39.363Z,98786.25
2023-04-06T13:11:09.210Z,98784.53
2023-04-06T13:13:37.253Z,98794.13
2023-04-06T13:16:06.868Z,98783.00
2023-04-06T13:18:35.248Z,98778.03
2023-04-06T13:21:02.270Z,98770.94
2023-04-06T13:23:29.453Z,98783.59
2023-04-06T13:26:01.778Z,98768.66
2023-04-06T13:28:29.205Z,98769.47
2023-04-06T13:30:56.969Z,98753.09
2023-04-06T13:33:25.097Z,98764.88
2023-04-06T13:35:52.220Z,98768.19
2023-04-06T13:38:19.484Z,98770.94
2023-04-06T13:40:46.489Z,98770.06
2023-04-06T13:43:13.654Z,98768.88
2023-04-06T13:45:41.335Z,98766.75
2023-04-06T13:48:08.358Z,98775.91
2023-04-06T13:50:36.171Z,98763.81
2023-04-06T13:53:03.198Z,98766.97
2023-04-06T13:55:31.574Z,98765.06
2023-04-06T13:57:58.854Z,98752.56
2023-04-06T14:00:25.970Z,98760.13
2023-04-06T14:02:56.373Z,98770.69
2023-04-06T14:05:24.920Z,98767.63
2023-04-06T14:07:51.910Z,98765.56
2023-04-06T14:10:22.310Z,98762.03
2023-04-06T14:12:49.286Z,98768.50
2023-04-06T14:15:16.644Z,98766.69
2023-04-06T14:17:43.528Z,98757.75
2023-04-06T14:20:15.175Z,98767.22
2023-04-06T14:22:44.158Z,98761.59
2023-04-06T14:25:15.017Z,98769.66
2023-04-06T14:27:45.005Z,98753.25
2023-04-06T14:30:13.244Z,98761.34
2023-04-06T14:32:41.137Z,98754.78
2023-04-06T14:35:08.617Z,98754.78
2023-04-06T14:37:35.748Z,98748.75
2023-04-06T14:40:04.349Z,98754.06
2023-04-06T14:42:31.446Z,98745.53
2023-04-06T14:44:58.690Z,98754.53
2023-04-06T14:47:25.995Z,98748.28
2023-04-06T14:49:54.482Z,98754.06
2023-04-06T14:52:21.777Z,98754.94
2023-04-06T14:54:48.620Z,98754.28
2023-04-06T14:57:15.686Z,98739.94
2023-04-06T14:59:42.661Z,98755.91
2023-04-06T15:02:09.676Z,98753.06
2023-04-06T15:04:37.503Z,98756.84
2023-04-06T15:07:05.132Z,98755.56
2023-04-06T15:09:32.310Z,98745.06
2023-04-06T15:11:59.582Z,98746.78
2023-04-06T15:14:26.729Z,98757.94
2023-04-06T15:16:53.730Z,98746.59
2023-04-06T15:19:20.720Z,98749.56
2023-04-06T15:21:47.833Z,98751.97
2023-04-06T15:24:14.658Z,98758.47
2023-04-06T15:26:41.760Z,98749.22
2023-04-06T15:29:09.115Z,98754.38
2023-04-06T15:31:38.491Z,98752.63
2023-04-06T15:34:09.310Z,98756.56
2023-04-06T15:36:37.516Z,98758.88
2023-04-06T15:39:04.952Z,98757.09
2023-04-06T15:41:32.221Z,98761.78
2023-04-06T15:43:59.473Z,98765.88
2023-04-06T15:46:28.609Z,98765.91
2023-04-06T15:48:56.404Z,98769.13
2023-04-06T15:51:24.511Z,98770.44
2023-04-06T15:53:51.480Z,98763.78
2023-04-06T15:56:18.724Z,98764.59
2023-04-06T15:58:45.716Z,98767.84
2023-04-06T16:01:17.335Z,98775.09
2023-04-06T16:03:44.707Z,98762.34
2023-04-06T16:06:12.769Z,98774.16
2023-04-06T16:08:43.942Z,98777.22
2023-04-06T16:11:11.016Z,98774.63
2023-04-06T16:13:39.008Z,98770.41
2023-04-06T16:16:06.813Z,98769.28
2023-04-06T16:18:36.194Z,98773.50
2023-04-06T16:21:04.115Z,98763.66
2023-04-06T16:23:31.498Z,98768.03
2023-04-06T16:25:58.419Z,98781.59
2023-04-06T16:28:25.844Z,98778.03
2023-04-06T16:30:53.058Z,98791.09
2023-04-06T16:33:19.937Z,98791.09
2023-04-06T16:35:47.978Z,98787.66
2023-04-06T16:38:16.281Z,98798.47
2023-04-06T16:40:43.219Z,98801.34
2023-04-06T16:43:10.287Z,98793.88
2023-04-06T16:45:38.257Z,98800.00
2023-04-06T16:48:06.437Z,98793.84
2023-04-06T16:50:36.439Z,98808.19
2023-04-06T16:53:06.503Z,98809.94
2023-04-06T16:55:33.435Z,98812.66
2023-04-06T16:58:00.458Z,98820.38
2023-04-06T17:00:27.389Z,98815.78
2023-04-06T17:02:54.673Z,98824.66
2023-04-06T17:05:27.787Z,98828.47
2023-04-06T17:08:20.395Z,98842.78
2023-04-06T17:10:59.015Z,98819.22
2023-04-06T17:13:30.923Z,98843.22
2023-04-06T17:15:57.851Z,98845.13
2023-04-06T17:18:24.772Z,98846.00
2023-04-06T17:20:51.724Z,98851.41
2023-04-06T17:23:18.717Z,98859.94
2023-04-06T17:25:45.681Z,98860.75
2023-04-06T17:28:12.454Z,98864.63
2023-04-06T17:30:40.436Z,98870.09
2023-04-06T17:33:07.339Z,98869.31
2023-04-06T17:35:34.377Z,98872.97
2023-04-06T17:38:02.112Z,98894.66
2023-04-06T17:40:29.062Z,98888.91
2023-04-06T17:42:56.158Z,98889.13
2023-04-06T17:45:23.969Z,98894.06
2023-04-06T17:47:51.268Z,98911.91
2023-04-06T17:50:18.709Z,98902.56
2023-04-06T17:55:12.904Z,98906.00
2023-04-06T17:57:42.000Z,98920.81
2023-04-06T18:00:11.981Z,98922.31
2023-04-06T18:02:39.006Z,98921.38
2023-04-06T18:05:06.330Z,98931.38
2023-04-06T18:07:33.385Z,98932.88
2023-04-06T18:10:01.790Z,98940.59
2023-04-06T18:12:28.623Z,98930.84
2023-04-06T18:14:55.772Z,98936.91
2023-04-06T18:17:22.551Z,98954.19
2023-04-06T18:19:49.666Z,98959.94
2023-04-06T18:22:16.741Z,98948.44
2023-04-06T18:24:43.950Z,98968.59
2023-04-06T18:27:14.634Z,98974.13
2023-04-06T18:29:44.450Z,98968.44
2023-04-06T18:32:11.801Z,98952.13
2023-04-06T18:34:39.628Z,98984.47
2023-04-06T18:37:06.757Z,98968.81
2023-04-06T18:39:34.094Z,98987.28
2023-04-06T18:42:01.040Z,98989.44
2023-04-06T18:44:28.155Z,98981.91
2023-04-06T18:46:55.787Z,98990.03
2023-04-06T18:49:22.902Z,98985.66
2023-04-06T18:51:49.867Z,98984.25
2023-04-06T18:54:17.290Z,98987.22
2023-04-06T18:56:44.345Z,98989.88
2023-04-06T18:59:12.219Z,98991.09
2023-04-06T19:01:43.673Z,98995.66
2023-04-06T19:04:13.656Z,98993.63
2023-04-06T19:06:41.121Z,98990.78
2023-04-06T19:09:08.344Z,99000.09
2023-04-06T19:11:36.502Z,99009.63
2023-04-06T19:14:03.671Z,99000.09
2023-04-06T19:16:30.589Z,98997.81
2023-04-06T19:18:57.751Z,99011.69
2023-04-06T19:21:28.771Z,99006.16
2023-04-06T19:23:56.585Z,99008.66
2023-04-06T19:26:25.393Z,99002.22
2023-04-06T19:28:52.450Z,99006.72
2023-04-06T19:31:20.086Z,99005.81
2023-04-06T19:33:47.785Z,98987.13
2023-04-06T19:36:16.470Z,99011.50
2023-04-06T19:38:43.619Z,99000.63
2023-04-06T19:41:10.855Z,99015.25
2023-04-06T19:43:37.656Z,99006.31
2023-04-06T19:46:05.214Z,99017.53
2023-04-06T19:48:36.178Z,99028.88
2023-04-06T19:51:03.187Z,99022.00
2023-04-06T19:53:30.329Z,99034.38
2023-04-06T19:55:57.152Z,99021.88
2023-04-06T19:58:25.055Z,99031.94
2023-04-06T20:01:00.921Z,99032.94
2023-04-06T20:03:29.095Z,99032.53
2023-04-06T20:08:41.350Z,99044.28
2023-04-06T20:11:08.347Z,99034.06
2023-04-06T20:13:36.304Z,99054.63
2023-04-06T20:16:03.760Z,99036.19
2023-04-06T20:18:33.858Z,99034.06
2023-04-06T20:21:01.080Z,99039.25
2023-04-06T20:23:28.118Z,99030.72
2023-04-06T20:25:55.507Z,99029.41
2023-04-06T20:28:23.253Z,99034.97
2023-04-06T20:30:52.510Z,99040.13
2023-04-06T20:33:19.563Z,99050.78
2023-04-06T20:35:47.236Z,99044.00
2023-04-06T20:38:14.654Z,99055.44
2023-04-06T20:40:45.234Z,99058.44
2023-04-06T20:43:12.168Z,99061.09
2023-04-06T20:45:39.280Z,99063.75
2023-04-06T20:48:06.401Z,99074.47
2023-04-06T20:50:33.785Z,99065.16
2023-04-06T20:53:00.636Z,99073.06
2023-04-06T20:55:27.939Z,99068.19
2023-04-06T20:57:54.922Z,99060.56
2023-04-06T21:00:21.994Z,99070.31
2023-04-06T21:02:49.328Z,99068.13
2023-04-06T21:05:16.685Z,99076.03
2023-04-06T21:07:43.617Z,99080.03
2023-04-06T21:10:10.990Z,99082.16
2023-04-06T21:12:37.854Z,99091.69
2023-04-06T21:15:05.608Z,99072.94
2023-04-06T21:17:32.586Z,99081.94
2023-04-06T21:19:59.446Z,99085.63
2023-04-06T21:22:26.671Z,99083.56
2023-04-06T21:24:53.544Z,99083.66
2023-04-06T21:27:20.450Z,99087.59
2023-04-06T21:29:47.583Z,99088.19
2023-04-06T21:32:14.654Z,99075.31
2023-04-06T21:34:45.771Z,99082.91
2023-04-06T21:37:15.196Z,99088.19
2023-04-06T21:39:46.371Z,99091.00
2023-04-06T21:42:13.692Z,99086.03
2023-04-06T21:44:40.639Z,99093.13
2023-04-06T21:47:07.645Z,99078.19
2023-04-06T21:49:34.831Z,99076.56
2023-04-06T21:52:01.910Z,99087.38
2023-04-06T21:54:33.979Z,99102.16
2023-04-06T21:57:01.985Z,99089.66
2023-04-06T21:59:29.437Z,99093.72
2023-04-06T22:01:57.281Z,99090.78
2023-04-06T22:04:25.553Z,99082.84
2023-04-06T22:06:52.837Z,99094.91
2023-04-06T22:09:19.656Z,99081.59
2023-04-06T22:11:46.940Z,99089.44
2023-04-06T22:14:14.139Z,99073.31
2023-04-06T22:16:41.178Z,99085.00
2023-04-06T22:19:08.103Z,99100.91
2023-04-06T22:21:34.978Z,99096.69
2023-04-06T22:24:02.018Z,99091.59
2023-04-06T22:26:29.108Z,99102.53
2023-04-06T22:28:56.042Z,99104.50
2023-04-06T22:31:22.987Z,99104.28
2023-04-06T22:33:50.181Z,99091.66
2023-04-06T22:36:17.238Z,99089.66
2023-04-06T22:38:44.598Z,99083.16
2023-04-06T22:41:11.892Z,99087.22
2023-04-06T22:43:39.268Z,99075.03
2023-04-06T22:46:06.475Z,99084.56
2023-04-06T22:48:33.734Z,99078.88
2023-04-06T22:51:00.842Z,99081.00
2023-04-06T22:53:27.924Z,99087.00
2023-04-06T22:55:54.875Z,99095.72
2023-04-06T22:58:22.050Z,99088.84
2023-04-06T23:00:48.896Z,99084.56
2023-04-06T23:03:16.097Z,99077.47
2023-04-06T23:05:43.222Z,99068.56
2023-04-06T23:08:10.319Z,99078.88
2023-04-06T23:10:38.641Z,99076.81
2023-04-06T23:13:05.772Z,99067.06
2023-04-06T23:15:33.134Z,99074.69
2023-04-06T23:18:00.228Z,99066.84
2023-04-06T23:20:27.360Z,99070.91
2023-04-06T23:22:54.328Z,99077.56
2023-04-06T23:25:21.696Z,99073.25
2023-04-06T23:27:48.510Z,99078.78
2023-04-06T23:30:15.795Z,99076.72
2023-04-06T23:32:44.200Z,99072.28
2023-04-06T23:35:11.325Z,99075.09
2023-04-06T23:37:38.489Z,99085.13
2023-04-06T23:40:06.350Z,99088.22
2023-04-06T23:42:33.374Z,99082.06
2023-04-06T23:45:02.361Z,99075.25
2023-04-06T23:47:29.423Z,99074.69
2023-04-06T23:49:56.550Z,99088.56
2023-04-06T23:52:23.473Z,99073.13
2023-04-06T23:54:50.394Z,99076.88
2023-04-06T23:57:17.222Z,99069.06
2023-04-06T23:59:44.201Z,99087.25
